sensor_id;sensor_type;location;lat;lon;timestamp;temperature;humidity
19536;HTU21D;9913;51.168;4.124;2022-12-19T00:00:36;3.29;91.69
19536;HTU21D;9913;51.168;4.124;2022-12-19T00:03:04;3.31;91.77
19536;HTU21D;9913;51.168;4.124;2022-12-19T00:05:35;3.28;92.30
19536;HTU21D;9913;51.168;4.124;2022-12-19T00:08:04;3.33;92.77
19536;HTU21D;9913;51.168;4.124;2022-12-19T00:10:53;3.43;93.07
19536;HTU21D;9913;51.168;4.124;2022-12-19T00:13:22;3.42;93.17
19536;HTU21D;9913;51.168;4.124;2022-12-19T00:15:51;3.48;93.22
19536;HTU21D;9913;51.168;4.124;2022-12-19T00:18:19;3.44;93.18
19536;HTU21D;9913;51.168;4.124;2022-12-19T00:20:55;3.61;92.80
19536;HTU21D;9913;51.168;4.124;2022-12-19T00:23:24;3.69;92.29
19536;HTU21D;9913;51.168;4.124;2022-12-19T00:25:54;3.69;91.86
19536;HTU21D;9913;51.168;4.124;2022-12-19T00:28:22;3.70;91.65
19536;HTU21D;9913;51.168;4.124;2022-12-19T00:30:51;3.71;91.54
19536;HTU21D;9913;51.168;4.124;2022-12-19T00:33:22;3.70;91.54
19536;HTU21D;9913;51.168;4.124;2022-12-19T00:35:56;3.62;91.66
19536;HTU21D;9913;51.168;4.124;2022-12-19T00:38:24;3.72;91.92
19536;HTU21D;9913;51.168;4.124;2022-12-19T00:40:54;3.77;92.13
19536;HTU21D;9913;51.168;4.124;2022-12-19T00:43:22;3.89;92.21
19536;HTU21D;9913;51.168;4.124;2022-12-19T00:45:50;3.87;92.26
19536;HTU21D;9913;51.168;4.124;2022-12-19T00:48:19;3.91;92.30
19536;HTU21D;9913;51.168;4.124;2022-12-19T00:50:47;3.91;92.38
19536;HTU21D;9913;51.168;4.124;2022-12-19T00:53:15;3.98;92.50
19536;HTU21D;9913;51.168;4.124;2022-12-19T00:56:00;4.07;92.59
19536;HTU21D;9913;51.168;4.124;2022-12-19T00:58:28;4.08;92.66
19536;HTU21D;9913;51.168;4.124;2022-12-19T01:01:04;4.19;92.74
19536;HTU21D;9913;51.168;4.124;2022-12-19T01:03:34;4.21;92.79
19536;HTU21D;9913;51.168;4.124;2022-12-19T01:06:04;4.17;92.75
19536;HTU21D;9913;51.168;4.124;2022-12-19T01:08:32;4.17;92.79
19536;HTU21D;9913;51.168;4.124;2022-12-19T01:11:03;4.30;92.85
19536;HTU21D;9913;51.168;4.124;2022-12-19T01:13:36;4.26;92.80
19536;HTU21D;9913;51.168;4.124;2022-12-19T01:16:10;4.22;92.77
19536;HTU21D;9913;51.168;4.124;2022-12-19T01:18:39;4.35;92.81
19536;HTU21D;9913;51.168;4.124;2022-12-19T01:21:09;4.36;92.72
19536;HTU21D;9913;51.168;4.124;2022-12-19T01:23:37;4.34;92.64
19536;HTU21D;9913;51.168;4.124;2022-12-19T01:26:08;4.43;92.71
19536;HTU21D;9913;51.168;4.124;2022-12-19T01:28:38;4.45;92.72
19536;HTU21D;9913;51.168;4.124;2022-12-19T01:31:06;4.50;92.87
19536;HTU21D;9913;51.168;4.124;2022-12-19T01:33:37;4.57;93.11
19536;HTU21D;9913;51.168;4.124;2022-12-19T01:36:08;4.63;93.35
19536;HTU21D;9913;51.168;4.124;2022-12-19T01:38:36;4.60;93.39
19536;HTU21D;9913;51.168;4.124;2022-12-19T01:41:06;4.62;93.48
19536;HTU21D;9913;51.168;4.124;2022-12-19T01:43:54;4.63;93.66
19536;HTU21D;9913;51.168;4.124;2022-12-19T01:46:25;4.65;93.85
19536;HTU21D;9913;51.168;4.124;2022-12-19T01:48:55;4.62;94.03
19536;HTU21D;9913;51.168;4.124;2022-12-19T01:51:25;4.69;94.23
19536;HTU21D;9913;51.168;4.124;2022-12-19T01:53:58;4.76;94.47
19536;HTU21D;9913;51.168;4.124;2022-12-19T01:56:32;4.82;94.56
19536;HTU21D;9913;51.168;4.124;2022-12-19T01:59:05;4.80;94.46
19536;HTU21D;9913;51.168;4.124;2022-12-19T02:01:36;4.77;94.33
19536;HTU21D;9913;51.168;4.124;2022-12-19T02:04:21;4.82;94.17
19536;HTU21D;9913;51.168;4.124;2022-12-19T02:06:52;4.88;94.04
19536;HTU21D;9913;51.168;4.124;2022-12-19T02:09:23;4.94;93.86
19536;HTU21D;9913;51.168;4.124;2022-12-19T02:11:52;4.94;93.69
19536;HTU21D;9913;51.168;4.124;2022-12-19T02:14:24;5.01;93.50
19536;HTU21D;9913;51.168;4.124;2022-12-19T02:16:58;5.02;93.32
19536;HTU21D;9913;51.168;4.124;2022-12-19T02:20:07;5.05;93.06
19536;HTU21D;9913;51.168;4.124;2022-12-19T02:22:55;5.11;92.86
19536;HTU21D;9913;51.168;4.124;2022-12-19T02:25:54;5.13;92.69
19536;HTU21D;9913;51.168;4.124;2022-12-19T02:28:57;5.05;92.56
19536;HTU21D;9913;51.168;4.124;2022-12-19T02:31:34;5.16;92.61
19536;HTU21D;9913;51.168;4.124;2022-12-19T02:34:08;5.10;92.72
19536;HTU21D;9913;51.168;4.124;2022-12-19T02:36:50;5.13;92.87
19536;HTU21D;9913;51.168;4.124;2022-12-19T02:39:24;5.24;92.98
19536;HTU21D;9913;51.168;4.124;2022-12-19T02:42:00;5.28;92.98
19536;HTU21D;9913;51.168;4.124;2022-12-19T02:44:36;5.25;93.09
19536;HTU21D;9913;51.168;4.124;2022-12-19T02:47:08;5.30;93.17
19536;HTU21D;9913;51.168;4.124;2022-12-19T02:49:38;5.35;93.23
19536;HTU21D;9913;51.168;4.124;2022-12-19T02:52:11;5.41;93.25
19536;HTU21D;9913;51.168;4.124;2022-12-19T02:54:39;5.40;93.24
19536;HTU21D;9913;51.168;4.124;2022-12-19T02:57:18;5.43;93.24
19536;HTU21D;9913;51.168;4.124;2022-12-19T02:59:57;5.50;93.33
19536;HTU21D;9913;51.168;4.124;2022-12-19T03:02:37;5.48;93.35
19536;HTU21D;9913;51.168;4.124;2022-12-19T03:05:13;5.45;93.46
19536;HTU21D;9913;51.168;4.124;2022-12-19T03:07:51;5.48;93.56
19536;HTU21D;9913;51.168;4.124;2022-12-19T03:10:28;5.48;93.75
19536;HTU21D;9913;51.168;4.124;2022-12-19T03:13:01;5.63;93.82
19536;HTU21D;9913;51.168;4.124;2022-12-19T03:15:32;5.50;93.88
19536;HTU21D;9913;51.168;4.124;2022-12-19T03:18:03;5.63;93.91
19536;HTU21D;9913;51.168;4.124;2022-12-19T03:20:38;5.62;93.91
19536;HTU21D;9913;51.168;4.124;2022-12-19T03:23:09;5.62;94.02
19536;HTU21D;9913;51.168;4.124;2022-12-19T03:25:40;5.56;94.18
19536;HTU21D;9913;51.168;4.124;2022-12-19T03:28:11;5.49;94.35
19536;HTU21D;9913;51.168;4.124;2022-12-19T03:30:42;5.62;94.47
19536;HTU21D;9913;51.168;4.124;2022-12-19T03:33:15;5.61;94.61
19536;HTU21D;9913;51.168;4.124;2022-12-19T03:35:45;5.65;94.66
19536;HTU21D;9913;51.168;4.124;2022-12-19T03:38:14;5.69;94.69
19536;HTU21D;9913;51.168;4.124;2022-12-19T03:40:45;5.75;94.62
19536;HTU21D;9913;51.168;4.124;2022-12-19T03:43:16;5.74;94.53
19536;HTU21D;9913;51.168;4.124;2022-12-19T03:45:47;5.80;94.40
19536;HTU21D;9913;51.168;4.124;2022-12-19T03:48:22;5.81;94.22
19536;HTU21D;9913;51.168;4.124;2022-12-19T03:51:00;5.83;94.12
19536;HTU21D;9913;51.168;4.124;2022-12-19T03:53:40;5.81;93.98
19536;HTU21D;9913;51.168;4.124;2022-12-19T03:56:17;5.90;93.77
19536;HTU21D;9913;51.168;4.124;2022-12-19T03:58:53;5.87;93.60
19536;HTU21D;9913;51.168;4.124;2022-12-19T04:01:24;5.94;93.48
19536;HTU21D;9913;51.168;4.124;2022-12-19T04:03:57;5.94;93.19
19536;HTU21D;9913;51.168;4.124;2022-12-19T04:06:27;5.99;92.89
19536;HTU21D;9913;51.168;4.124;2022-12-19T04:08:58;5.91;92.59
19536;HTU21D;9913;51.168;4.124;2022-12-19T04:11:30;5.98;92.52
19536;HTU21D;9913;51.168;4.124;2022-12-19T04:14:05;5.94;92.38
19536;HTU21D;9913;51.168;4.124;2022-12-19T04:16:39;5.97;92.36
19536;HTU21D;9913;51.168;4.124;2022-12-19T04:19:17;5.98;92.30
19536;HTU21D;9913;51.168;4.124;2022-12-19T04:21:50;5.97;92.30
19536;HTU21D;9913;51.168;4.124;2022-12-19T04:24:24;6.01;92.20
19536;HTU21D;9913;51.168;4.124;2022-12-19T04:26:54;6.01;92.08
19536;HTU21D;9913;51.168;4.124;2022-12-19T04:29:25;6.01;91.82
19536;HTU21D;9913;51.168;4.124;2022-12-19T04:31:55;6.08;91.50
19536;HTU21D;9913;51.168;4.124;2022-12-19T04:34:25;6.06;91.21
19536;HTU21D;9913;51.168;4.124;2022-12-19T04:36:56;6.10;91.05
19536;HTU21D;9913;51.168;4.124;2022-12-19T04:39:24;6.10;90.87
19536;HTU21D;9913;51.168;4.124;2022-12-19T04:41:52;6.13;90.68
19536;HTU21D;9913;51.168;4.124;2022-12-19T04:44:21;6.12;90.66
19536;HTU21D;9913;51.168;4.124;2022-12-19T04:46:49;6.14;90.57
19536;HTU21D;9913;51.168;4.124;2022-12-19T04:49:17;6.12;90.34
19536;HTU21D;9913;51.168;4.124;2022-12-19T04:51:47;6.13;90.31
19536;HTU21D;9913;51.168;4.124;2022-12-19T04:54:15;6.19;90.21
19536;HTU21D;9913;51.168;4.124;2022-12-19T04:56:44;6.20;90.12
19536;HTU21D;9913;51.168;4.124;2022-12-19T04:59:12;6.25;90.02
19536;HTU21D;9913;51.168;4.124;2022-12-19T05:01:40;6.34;89.78
19536;HTU21D;9913;51.168;4.124;2022-12-19T05:04:09;6.35;89.47
19536;HTU21D;9913;51.168;4.124;2022-12-19T05:06:37;6.38;89.22
19536;HTU21D;9913;51.168;4.124;2022-12-19T05:09:09;6.30;89.04
19536;HTU21D;9913;51.168;4.124;2022-12-19T05:11:37;6.34;89.05
19536;HTU21D;9913;51.168;4.124;2022-12-19T05:14:06;6.35;89.15
19536;HTU21D;9913;51.168;4.124;2022-12-19T05:16:34;6.35;89.21
19536;HTU21D;9913;51.168;4.124;2022-12-19T05:19:02;6.44;89.06
19536;HTU21D;9913;51.168;4.124;2022-12-19T05:21:31;6.49;88.51
19536;HTU21D;9913;51.168;4.124;2022-12-19T05:23:59;6.49;88.12
19536;HTU21D;9913;51.168;4.124;2022-12-19T05:26:28;6.49;87.93
19536;HTU21D;9913;51.168;4.124;2022-12-19T05:28:57;6.53;87.91
19536;HTU21D;9913;51.168;4.124;2022-12-19T05:31:25;6.57;87.70
19536;HTU21D;9913;51.168;4.124;2022-12-19T05:33:53;6.65;87.24
19536;HTU21D;9913;51.168;4.124;2022-12-19T05:36:22;6.70;86.53
19536;HTU21D;9913;51.168;4.124;2022-12-19T05:38:58;6.71;86.06
19536;HTU21D;9913;51.168;4.124;2022-12-19T05:41:26;6.69;85.79
19536;HTU21D;9913;51.168;4.124;2022-12-19T05:43:55;6.80;85.22
19536;HTU21D;9913;51.168;4.124;2022-12-19T05:46:24;6.82;85.06
19536;HTU21D;9913;51.168;4.124;2022-12-19T05:48:54;6.79;84.97
19536;HTU21D;9913;51.168;4.124;2022-12-19T05:51:23;6.78;85.06
19536;HTU21D;9913;51.168;4.124;2022-12-19T05:53:52;6.82;85.00
19536;HTU21D;9913;51.168;4.124;2022-12-19T05:56:21;6.85;84.64
19536;HTU21D;9913;51.168;4.124;2022-12-19T05:58:49;6.90;84.16
19536;HTU21D;9913;51.168;4.124;2022-12-19T06:01:20;6.88;83.56
19536;HTU21D;9913;51.168;4.124;2022-12-19T06:03:49;6.83;83.23
19536;HTU21D;9913;51.168;4.124;2022-12-19T06:06:19;6.86;83.49
19536;HTU21D;9913;51.168;4.124;2022-12-19T06:08:51;6.86;83.48
19536;HTU21D;9913;51.168;4.124;2022-12-19T06:11:20;6.93;83.25
19536;HTU21D;9913;51.168;4.124;2022-12-19T06:13:48;6.89;82.94
19536;HTU21D;9913;51.168;4.124;2022-12-19T06:16:19;6.90;83.21
19536;HTU21D;9913;51.168;4.124;2022-12-19T06:18:48;6.93;82.99
19536;HTU21D;9913;51.168;4.124;2022-12-19T06:21:18;6.97;82.54
19536;HTU21D;9913;51.168;4.124;2022-12-19T06:23:47;7.05;81.75
19536;HTU21D;9913;51.168;4.124;2022-12-19T06:26:17;7.03;81.26
19536;HTU21D;9913;51.168;4.124;2022-12-19T06:28:46;7.04;81.46
19536;HTU21D;9913;51.168;4.124;2022-12-19T06:31:15;6.98;81.98
19536;HTU21D;9913;51.168;4.124;2022-12-19T06:33:45;7.07;81.65
19536;HTU21D;9913;51.168;4.124;2022-12-19T06:36:19;7.07;81.54
19536;HTU21D;9913;51.168;4.124;2022-12-19T06:38:49;7.11;81.23
19536;HTU21D;9913;51.168;4.124;2022-12-19T06:41:18;7.07;81.55
19536;HTU21D;9913;51.168;4.124;2022-12-19T06:44:05;7.14;81.46
19536;HTU21D;9913;51.168;4.124;2022-12-19T06:46:35;7.12;81.49
19536;HTU21D;9913;51.168;4.124;2022-12-19T06:49:05;7.16;81.27
19536;HTU21D;9913;51.168;4.124;2022-12-19T06:51:33;7.20;81.05
19536;HTU21D;9913;51.168;4.124;2022-12-19T06:54:02;7.13;81.25
19536;HTU21D;9913;51.168;4.124;2022-12-19T06:56:34;7.13;81.80
19536;HTU21D;9913;51.168;4.124;2022-12-19T06:59:02;7.17;81.89
19536;HTU21D;9913;51.168;4.124;2022-12-19T07:01:41;7.15;82.45
19536;HTU21D;9913;51.168;4.124;2022-12-19T07:04:18;7.14;82.39
19536;HTU21D;9913;51.168;4.124;2022-12-19T07:06:47;7.11;82.55
19536;HTU21D;9913;51.168;4.124;2022-12-19T07:09:15;7.14;82.22
19536;HTU21D;9913;51.168;4.124;2022-12-19T07:11:44;7.13;81.58
19536;HTU21D;9913;51.168;4.124;2022-12-19T07:14:12;7.23;81.01
19536;HTU21D;9913;51.168;4.124;2022-12-19T07:16:41;7.19;80.40
19536;HTU21D;9913;51.168;4.124;2022-12-19T07:19:09;7.26;79.54
19536;HTU21D;9913;51.168;4.124;2022-12-19T07:21:39;7.20;79.43
19536;HTU21D;9913;51.168;4.124;2022-12-19T07:24:08;7.30;79.08
19536;HTU21D;9913;51.168;4.124;2022-12-19T07:26:37;7.22;79.32
19536;HTU21D;9913;51.168;4.124;2022-12-19T07:29:05;7.29;79.54
19536;HTU21D;9913;51.168;4.124;2022-12-19T07:31:34;7.30;79.34
19536;HTU21D;9913;51.168;4.124;2022-12-19T07:34:02;7.25;79.38
19536;HTU21D;9913;51.168;4.124;2022-12-19T07:36:31;7.28;79.83
19536;HTU21D;9913;51.168;4.124;2022-12-19T07:39:01;7.29;80.02
19536;HTU21D;9913;51.168;4.124;2022-12-19T07:41:29;7.28;80.14
19536;HTU21D;9913;51.168;4.124;2022-12-19T07:43:58;7.29;80.04
19536;HTU21D;9913;51.168;4.124;2022-12-19T07:46:27;7.24;80.17
19536;HTU21D;9913;51.168;4.124;2022-12-19T07:48:56;7.30;80.26
19536;HTU21D;9913;51.168;4.124;2022-12-19T07:51:25;7.31;80.34
19536;HTU21D;9913;51.168;4.124;2022-12-19T07:53:53;7.38;80.07
19536;HTU21D;9913;51.168;4.124;2022-12-19T07:56:23;7.40;79.69
19536;HTU21D;9913;51.168;4.124;2022-12-19T07:58:52;7.43;79.45
19536;HTU21D;9913;51.168;4.124;2022-12-19T08:01:20;7.40;79.62
19536;HTU21D;9913;51.168;4.124;2022-12-19T08:03:48;7.43;79.58
19536;HTU21D;9913;51.168;4.124;2022-12-19T08:06:19;7.42;79.58
19536;HTU21D;9913;51.168;4.124;2022-12-19T08:08:47;7.57;79.07
19536;HTU21D;9913;51.168;4.124;2022-12-19T08:11:18;7.58;78.61
19536;HTU21D;9913;51.168;4.124;2022-12-19T08:13:49;7.62;78.52
19536;HTU21D;9913;51.168;4.124;2022-12-19T08:16:18;7.61;78.22
19536;HTU21D;9913;51.168;4.124;2022-12-19T08:18:47;7.70;77.94
19536;HTU21D;9913;51.168;4.124;2022-12-19T08:21:15;7.62;78.34
19536;HTU21D;9913;51.168;4.124;2022-12-19T08:23:44;7.60;78.62
19536;HTU21D;9913;51.168;4.124;2022-12-19T08:26:15;7.62;78.58
19536;HTU21D;9913;51.168;4.124;2022-12-19T08:28:43;7.64;78.70
19536;HTU21D;9913;51.168;4.124;2022-12-19T08:31:16;7.63;78.75
19536;HTU21D;9913;51.168;4.124;2022-12-19T08:33:45;7.67;78.59
19536;HTU21D;9913;51.168;4.124;2022-12-19T08:36:15;7.73;78.24
19536;HTU21D;9913;51.168;4.124;2022-12-19T08:38:45;7.75;78.27
19536;HTU21D;9913;51.168;4.124;2022-12-19T08:41:15;7.88;77.73
19536;HTU21D;9913;51.168;4.124;2022-12-19T08:43:48;7.90;77.27
19536;HTU21D;9913;51.168;4.124;2022-12-19T08:46:18;7.90;77.35
19536;HTU21D;9913;51.168;4.124;2022-12-19T08:48:47;7.93;77.05
19536;HTU21D;9913;51.168;4.124;2022-12-19T08:51:16;8.02;77.10
19536;HTU21D;9913;51.168;4.124;2022-12-19T08:53:45;8.03;77.10
19536;HTU21D;9913;51.168;4.124;2022-12-19T08:56:15;8.04;77.05
19536;HTU21D;9913;51.168;4.124;2022-12-19T08:58:44;8.08;76.95
19536;HTU21D;9913;51.168;4.124;2022-12-19T09:01:15;8.06;77.03
19536;HTU21D;9913;51.168;4.124;2022-12-19T09:03:46;8.15;76.86
19536;HTU21D;9913;51.168;4.124;2022-12-19T09:06:35;8.14;76.88
19536;HTU21D;9913;51.168;4.124;2022-12-19T09:09:04;8.15;77.00
19536;HTU21D;9913;51.168;4.124;2022-12-19T09:11:32;8.11;77.18
19536;HTU21D;9913;51.168;4.124;2022-12-19T09:14:13;8.13;77.23
19536;HTU21D;9913;51.168;4.124;2022-12-19T09:16:47;8.17;77.11
19536;HTU21D;9913;51.168;4.124;2022-12-19T09:19:17;8.22;76.89
19536;HTU21D;9913;51.168;4.124;2022-12-19T09:21:45;8.20;77.07
19536;HTU21D;9913;51.168;4.124;2022-12-19T09:24:13;8.16;77.11
19536;HTU21D;9913;51.168;4.124;2022-12-19T09:26:41;8.21;77.15
19536;HTU21D;9913;51.168;4.124;2022-12-19T09:29:11;8.22;77.20
19536;HTU21D;9913;51.168;4.124;2022-12-19T09:31:47;8.27;77.11
19536;HTU21D;9913;51.168;4.124;2022-12-19T09:34:24;8.18;77.40
19536;HTU21D;9913;51.168;4.124;2022-12-19T09:37:05;8.16;78.08
19536;HTU21D;9913;51.168;4.124;2022-12-19T09:39:34;8.03;79.11
19536;HTU21D;9913;51.168;4.124;2022-12-19T09:45:35;7.92;81.16
19536;HTU21D;9913;51.168;4.124;2022-12-19T09:48:11;7.88;81.81
19536;HTU21D;9913;51.168;4.124;2022-12-19T09:50:56;7.85;82.65
19536;HTU21D;9913;51.168;4.124;2022-12-19T09:53:49;7.88;82.84
19536;HTU21D;9913;51.168;4.124;2022-12-19T09:56:26;7.87;83.07
19536;HTU21D;9913;51.168;4.124;2022-12-19T09:59:02;7.87;83.20
19536;HTU21D;9913;51.168;4.124;2022-12-19T10:01:38;7.88;83.61
19536;HTU21D;9913;51.168;4.124;2022-12-19T10:04:13;7.91;83.74
19536;HTU21D;9913;51.168;4.124;2022-12-19T10:06:46;7.88;83.46
19536;HTU21D;9913;51.168;4.124;2022-12-19T10:09:34;7.93;83.22
19536;HTU21D;9913;51.168;4.124;2022-12-19T10:12:35;7.93;82.83
19536;HTU21D;9913;51.168;4.124;2022-12-19T10:15:24;7.92;82.97
19536;HTU21D;9913;51.168;4.124;2022-12-19T10:18:04;7.91;82.46
19536;HTU21D;9913;51.168;4.124;2022-12-19T10:20:41;7.91;82.46
19536;HTU21D;9913;51.168;4.124;2022-12-19T10:23:25;7.96;82.00
19536;HTU21D;9913;51.168;4.124;2022-12-19T10:26:00;8.00;81.00
19536;HTU21D;9913;51.168;4.124;2022-12-19T10:28:41;8.06;79.88
19536;HTU21D;9913;51.168;4.124;2022-12-19T10:31:17;8.15;79.28
19536;HTU21D;9913;51.168;4.124;2022-12-19T10:33:53;8.16;78.51
19536;HTU21D;9913;51.168;4.124;2022-12-19T10:36:23;8.21;78.41
19536;HTU21D;9913;51.168;4.124;2022-12-19T10:39:22;8.27;78.11
19536;HTU21D;9913;51.168;4.124;2022-12-19T10:41:56;8.32;77.69
19536;HTU21D;9913;51.168;4.124;2022-12-19T10:44:29;8.29;77.98
19536;HTU21D;9913;51.168;4.124;2022-12-19T10:46:58;8.30;78.08
19536;HTU21D;9913;51.168;4.124;2022-12-19T10:49:30;8.42;77.26
19536;HTU21D;9913;51.168;4.124;2022-12-19T10:52:00;8.45;77.06
19536;HTU21D;9913;51.168;4.124;2022-12-19T10:54:41;8.48;76.81
19536;HTU21D;9913;51.168;4.124;2022-12-19T10:57:22;8.46;77.14
19536;HTU21D;9913;51.168;4.124;2022-12-19T10:59:56;8.50;77.03
19536;HTU21D;9913;51.168;4.124;2022-12-19T11:02:39;8.49;76.80
19536;HTU21D;9913;51.168;4.124;2022-12-19T11:05:23;8.46;76.76
19536;HTU21D;9913;51.168;4.124;2022-12-19T11:08:00;8.49;76.76
19536;HTU21D;9913;51.168;4.124;2022-12-19T11:10:38;8.53;76.85
19536;HTU21D;9913;51.168;4.124;2022-12-19T11:13:38;8.65;76.65
19536;HTU21D;9913;51.168;4.124;2022-12-19T11:16:33;8.82;76.12
19536;HTU21D;9913;51.168;4.124;2022-12-19T11:19:27;9.01;75.81
19536;HTU21D;9913;51.168;4.124;2022-12-19T11:22:20;9.18;76.46
19536;HTU21D;9913;51.168;4.124;2022-12-19T11:25:14;9.30;76.06
19536;HTU21D;9913;51.168;4.124;2022-12-19T11:28:17;9.31;75.78
19536;HTU21D;9913;51.168;4.124;2022-12-19T11:31:10;9.37;76.05
19536;HTU21D;9913;51.168;4.124;2022-12-19T11:34:03;9.33;76.28
19536;HTU21D;9913;51.168;4.124;2022-12-19T11:36:36;9.34;76.12
19536;HTU21D;9913;51.168;4.124;2022-12-19T11:39:12;9.40;76.43
19536;HTU21D;9913;51.168;4.124;2022-12-19T11:41:47;9.51;76.12
19536;HTU21D;9913;51.168;4.124;2022-12-19T11:44:25;9.60;76.11
19536;HTU21D;9913;51.168;4.124;2022-12-19T11:47:01;9.50;76.19
19536;HTU21D;9913;51.168;4.124;2022-12-19T11:49:35;9.57;76.01
19536;HTU21D;9913;51.168;4.124;2022-12-19T11:52:12;9.60;76.89
19536;HTU21D;9913;51.168;4.124;2022-12-19T11:55:04;9.57;75.76
19536;HTU21D;9913;51.168;4.124;2022-12-19T11:57:40;9.62;76.66
19536;HTU21D;9913;51.168;4.124;2022-12-19T12:00:13;9.57;76.18
19536;HTU21D;9913;51.168;4.124;2022-12-19T12:02:59;9.60;76.45
19536;HTU21D;9913;51.168;4.124;2022-12-19T12:05:43;9.52;76.53
19536;HTU21D;9913;51.168;4.124;2022-12-19T12:11:39;9.65;76.85
19536;HTU21D;9913;51.168;4.124;2022-12-19T12:14:39;9.67;76.43
19536;HTU21D;9913;51.168;4.124;2022-12-19T12:17:44;9.59;76.68
19536;HTU21D;9913;51.168;4.124;2022-12-19T12:20:38;9.68;76.54
19536;HTU21D;9913;51.168;4.124;2022-12-19T12:23:32;9.68;76.93
19536;HTU21D;9913;51.168;4.124;2022-12-19T12:26:26;9.67;76.85
19536;HTU21D;9913;51.168;4.124;2022-12-19T12:29:18;9.71;76.86
19536;HTU21D;9913;51.168;4.124;2022-12-19T12:32:24;9.60;76.63
19536;HTU21D;9913;51.168;4.124;2022-12-19T12:35:29;9.66;77.11
19536;HTU21D;9913;51.168;4.124;2022-12-19T12:38:43;9.67;76.92
19536;HTU21D;9913;51.168;4.124;2022-12-19T12:41:22;9.66;76.71
19536;HTU21D;9913;51.168;4.124;2022-12-19T12:44:20;9.67;77.25
19536;HTU21D;9913;51.168;4.124;2022-12-19T12:47:04;9.66;77.12
19536;HTU21D;9913;51.168;4.124;2022-12-19T12:49:37;9.66;77.49
19536;HTU21D;9913;51.168;4.124;2022-12-19T12:52:10;9.80;77.15
19536;HTU21D;9913;51.168;4.124;2022-12-19T12:54:44;9.80;77.78
19536;HTU21D;9913;51.168;4.124;2022-12-19T12:57:18;9.77;77.05
19536;HTU21D;9913;51.168;4.124;2022-12-19T13:00:22;9.75;77.15
19536;HTU21D;9913;51.168;4.124;2022-12-19T13:02:54;9.78;76.91
19536;HTU21D;9913;51.168;4.124;2022-12-19T13:05:35;9.84;77.14
19536;HTU21D;9913;51.168;4.124;2022-12-19T13:08:30;9.75;77.19
19536;HTU21D;9913;51.168;4.124;2022-12-19T13:11:00;9.72;77.19
19536;HTU21D;9913;51.168;4.124;2022-12-19T13:13:50;9.77;77.63
19536;HTU21D;9913;51.168;4.124;2022-12-19T13:16:48;9.76;77.91
19536;HTU21D;9913;51.168;4.124;2022-12-19T13:19:19;9.71;77.61
19536;HTU21D;9913;51.168;4.124;2022-12-19T13:22:18;9.80;77.19
19536;HTU21D;9913;51.168;4.124;2022-12-19T13:24:49;9.75;77.42
19536;HTU21D;9913;51.168;4.124;2022-12-19T13:27:47;9.84;77.57
19536;HTU21D;9913;51.168;4.124;2022-12-19T13:30:18;9.97;77.71
19536;HTU21D;9913;51.168;4.124;2022-12-19T13:33:07;9.96;77.38
19536;HTU21D;9913;51.168;4.124;2022-12-19T13:35:36;10.04;77.16
19536;HTU21D;9913;51.168;4.124;2022-12-19T13:38:25;10.16;77.71
19536;HTU21D;9913;51.168;4.124;2022-12-19T13:41:29;10.15;77.66
19536;HTU21D;9913;51.168;4.124;2022-12-19T13:44:24;10.18;77.67
19536;HTU21D;9913;51.168;4.124;2022-12-19T13:46:54;10.16;77.31
19536;HTU21D;9913;51.168;4.124;2022-12-19T13:49:27;10.19;78.23
19536;HTU21D;9913;51.168;4.124;2022-12-19T13:52:01;10.15;78.11
19536;HTU21D;9913;51.168;4.124;2022-12-19T13:54:33;10.18;77.63
19536;HTU21D;9913;51.168;4.124;2022-12-19T13:57:19;10.20;78.11
19536;HTU21D;9913;51.168;4.124;2022-12-19T13:59:48;10.16;77.26
19536;HTU21D;9913;51.168;4.124;2022-12-19T14:02:29;10.13;77.80
19536;HTU21D;9913;51.168;4.124;2022-12-19T14:05:21;10.16;77.58
19536;HTU21D;9913;51.168;4.124;2022-12-19T14:08:15;10.07;77.65
19536;HTU21D;9913;51.168;4.124;2022-12-19T14:10:45;10.13;77.98
19536;HTU21D;9913;51.168;4.124;2022-12-19T14:13:42;10.10;77.92
19536;HTU21D;9913;51.168;4.124;2022-12-19T14:16:40;10.04;77.15
19536;HTU21D;9913;51.168;4.124;2022-12-19T14:19:17;10.05;77.01
19536;HTU21D;9913;51.168;4.124;2022-12-19T14:21:46;10.00;77.59
19536;HTU21D;9913;51.168;4.124;2022-12-19T14:24:34;10.00;77.69
19536;HTU21D;9913;51.168;4.124;2022-12-19T14:27:05;9.97;76.88
19536;HTU21D;9913;51.168;4.124;2022-12-19T14:29:57;9.94;77.62
19536;HTU21D;9913;51.168;4.124;2022-12-19T14:32:47;9.88;77.21
19536;HTU21D;9913;51.168;4.124;2022-12-19T14:35:41;9.86;77.56
19536;HTU21D;9913;51.168;4.124;2022-12-19T14:38:32;9.92;77.28
19536;HTU21D;9913;51.168;4.124;2022-12-19T14:41:37;9.94;77.56
19536;HTU21D;9913;51.168;4.124;2022-12-19T14:44:48;9.84;77.79
19536;HTU21D;9913;51.168;4.124;2022-12-19T14:47:39;9.88;77.18
19536;HTU21D;9913;51.168;4.124;2022-12-19T14:50:32;9.92;77.47
19536;HTU21D;9913;51.168;4.124;2022-12-19T14:53:21;9.91;77.56
19536;HTU21D;9913;51.168;4.124;2022-12-19T14:56:12;9.98;77.99
19536;HTU21D;9913;51.168;4.124;2022-12-19T14:59:01;9.99;77.11
19536;HTU21D;9913;51.168;4.124;2022-12-19T15:01:32;10.00;77.63
19536;HTU21D;9913;51.168;4.124;2022-12-19T15:04:07;10.00;77.70
19536;HTU21D;9913;51.168;4.124;2022-12-19T15:07:04;9.96;77.13
19536;HTU21D;9913;51.168;4.124;2022-12-19T15:09:49;9.98;77.36
19536;HTU21D;9913;51.168;4.124;2022-12-19T15:12:48;10.06;77.69
19536;HTU21D;9913;51.168;4.124;2022-12-19T15:15:56;10.05;77.31
19536;HTU21D;9913;51.168;4.124;2022-12-19T15:18:27;10.11;77.60
19536;HTU21D;9913;51.168;4.124;2022-12-19T15:20:58;10.06;77.67
19536;HTU21D;9913;51.168;4.124;2022-12-19T15:23:28;10.08;77.87
19536;HTU21D;9913;51.168;4.124;2022-12-19T15:26:00;10.07;77.68
19536;HTU21D;9913;51.168;4.124;2022-12-19T15:28:37;9.96;77.18
19536;HTU21D;9913;51.168;4.124;2022-12-19T15:31:12;10.01;77.37
19536;HTU21D;9913;51.168;4.124;2022-12-19T15:33:44;10.07;77.88
19536;HTU21D;9913;51.168;4.124;2022-12-19T15:36:33;10.07;78.01
19536;HTU21D;9913;51.168;4.124;2022-12-19T15:39:02;10.10;77.66
19536;HTU21D;9913;51.168;4.124;2022-12-19T15:41:31;10.00;77.29
19536;HTU21D;9913;51.168;4.124;2022-12-19T15:44:06;9.99;77.64
19536;HTU21D;9913;51.168;4.124;2022-12-19T15:46:35;9.98;77.79
19536;HTU21D;9913;51.168;4.124;2022-12-19T15:49:13;9.82;78.03
19536;HTU21D;9913;51.168;4.124;2022-12-19T15:51:48;9.89;77.70
19536;HTU21D;9913;51.168;4.124;2022-12-19T15:54:16;9.78;77.51
19536;HTU21D;9913;51.168;4.124;2022-12-19T15:57:08;9.82;77.59
19536;HTU21D;9913;51.168;4.124;2022-12-19T15:59:43;9.69;77.35
19536;HTU21D;9913;51.168;4.124;2022-12-19T16:02:14;9.64;77.57
19536;HTU21D;9913;51.168;4.124;2022-12-19T16:04:45;9.67;77.74
19536;HTU21D;9913;51.168;4.124;2022-12-19T16:07:17;9.82;77.51
19536;HTU21D;9913;51.168;4.124;2022-12-19T16:09:46;9.69;77.83
19536;HTU21D;9913;51.168;4.124;2022-12-19T16:12:16;9.64;77.72
19536;HTU21D;9913;51.168;4.124;2022-12-19T16:14:46;9.62;77.40
19536;HTU21D;9913;51.168;4.124;2022-12-19T16:17:20;9.64;77.64
19536;HTU21D;9913;51.168;4.124;2022-12-19T16:19:49;9.50;77.65
19536;HTU21D;9913;51.168;4.124;2022-12-19T16:22:21;9.61;77.79
19536;HTU21D;9913;51.168;4.124;2022-12-19T16:24:51;9.53;77.55
19536;HTU21D;9913;51.168;4.124;2022-12-19T16:27:22;9.44;77.50
19536;HTU21D;9913;51.168;4.124;2022-12-19T16:29:52;9.38;77.69
19536;HTU21D;9913;51.168;4.124;2022-12-19T16:32:22;9.44;77.68
19536;HTU21D;9913;51.168;4.124;2022-12-19T16:34:52;9.42;77.59
19536;HTU21D;9913;51.168;4.124;2022-12-19T16:37:22;9.51;77.76
19536;HTU21D;9913;51.168;4.124;2022-12-19T16:39:58;9.47;77.60
19536;HTU21D;9913;51.168;4.124;2022-12-19T16:42:28;9.38;77.47
19536;HTU21D;9913;51.168;4.124;2022-12-19T16:44:57;9.42;77.77